sensor_id;sensor_type;location;lat;lon;timestamp;pressure;altitude;pressure_sealevel;temperature;humidity
50684;BME280;36654;45.042;38.994;2023-05-09T00:00:14;101299.56;;;8.79;100.00
50684;BME280;36654;45.042;38.994;2023-05-09T00:02:40;101360.19;;;9.04;100.00
50684;BME280;36654;45.042;38.994;2023-05-09T00:05:10;101353.91;;;9.01;100.00
50684;BME280;36654;45.042;38.994;2023-05-09T00:07:36;101356.56;;;9.01;100.00
50684;BME280;36654;45.042;38.994;2023-05-09T00:10:02;101341.44;;;8.95;100.00
50684;BME280;36654;45.042;38.994;2023-05-09T00:12:28;101362.63;;;8.97;100.00
50684;BME280;36654;45.042;38.994;2023-05-09T00:14:54;101358.16;;;8.94;100.00
50684;BME280;36654;45.042;38.994;2023-05-09T00:17:22;101358.09;;;8.91;100.00
50684;BME280;36654;45.042;38.994;2023-05-09T00:19:48;101304.09;;;8.51;100.00
50684;BME280;36654;45.042;38.994;2023-05-09T00:22:16;101358.91;;;8.89;100.00
50684;BME280;36654;45.042;38.994;2023-05-09T00:24:42;101322.34;;;8.74;100.00
50684;BME280;36654;45.042;38.994;2023-05-09T00:27:08;101352.69;;;8.88;100.00
50684;BME280;36654;45.042;38.994;2023-05-09T00:29:34;101358.78;;;8.85;100.00
50684;BME280;36654;45.042;38.994;2023-05-09T00:32:00;101353.50;;;8.85;100.00
50684;BME280;36654;45.042;38.994;2023-05-09T00:34:26;101304.38;;;8.62;100.00
50684;BME280;36654;45.042;38.994;2023-05-09T00:36:52;101361.41;;;8.84;100.00
50684;BME280;36654;45.042;38.994;2023-05-09T00:39:17;101350.63;;;8.78;100.00
50684;BME280;36654;45.042;38.994;2023-05-09T00:41:43;101358.56;;;8.76;100.00
50684;BME280;36654;45.042;38.994;2023-05-09T00:44:09;101356.75;;;8.75;100.00
50684;BME280;36654;45.042;38.994;2023-05-09T00:46:34;101351.28;;;8.69;100.00
50684;BME280;36654;45.042;38.994;2023-05-09T00:49:00;101371.78;;;8.78;100.00
50684;BME280;36654;45.042;38.994;2023-05-09T00:51:27;101361.19;;;8.76;100.00
50684;BME280;36654;45.042;38.994;2023-05-09T00:53:53;101376.84;;;8.70;100.00
50684;BME280;36654;45.042;38.994;2023-05-09T00:56:19;101360.16;;;8.71;100.00
50684;BME280;36654;45.042;38.994;2023-05-09T00:58:46;101376.94;;;8.73;100.00
50684;BME280;36654;45.042;38.994;2023-05-09T01:01:12;101363.63;;;8.70;100.00
50684;BME280;36654;45.042;38.994;2023-05-09T01:03:38;101361.13;;;8.75;100.00
50684;BME280;36654;45.042;38.994;2023-05-09T01:12:02;101358.00;;;8.58;100.00
50684;BME280;36654;45.042;38.994;2023-05-09T01:17:16;101335.28;;;8.36;100.00
50684;BME280;36654;45.042;38.994;2023-05-09T01:20:01;101372.91;;;8.56;100.00
50684;BME280;36654;45.042;38.994;2023-05-09T01:22:33;101373.59;;;8.49;100.00
50684;BME280;36654;45.042;38.994;2023-05-09T01:25:35;101367.53;;;8.53;100.00
50684;BME280;36654;45.042;38.994;2023-05-09T01:30:37;101368.41;;;8.52;100.00
50684;BME280;36654;45.042;38.994;2023-05-09T01:33:06;101376.28;;;8.50;100.00
50684;BME280;36654;45.042;38.994;2023-05-09T01:35:35;101347.63;;;8.35;100.00
50684;BME280;36654;45.042;38.994;2023-05-09T01:38:08;101364.72;;;8.47;100.00
50684;BME280;36654;45.042;38.994;2023-05-09T01:40:34;101374.56;;;8.52;100.00
50684;BME280;36654;45.042;38.994;2023-05-09T01:43:05;101366.50;;;8.48;100.00
50684;BME280;36654;45.042;38.994;2023-05-09T01:45:32;101353.16;;;8.43;100.00
50684;BME280;36654;45.042;38.994;2023-05-09T01:47:59;101363.03;;;8.49;100.00
50684;BME280;36654;45.042;38.994;2023-05-09T01:50:26;101365.56;;;8.46;100.00
50684;BME280;36654;45.042;38.994;2023-05-09T01:52:55;101346.56;;;8.30;100.00
50684;BME280;36654;45.042;38.994;2023-05-09T01:55:25;101354.72;;;8.38;100.00
50684;BME280;36654;45.042;38.994;2023-05-09T01:57:52;101365.28;;;8.36;100.00
50684;BME280;36654;45.042;38.994;2023-05-09T02:00:18;101355.44;;;8.32;100.00
50684;BME280;36654;45.042;38.994;2023-05-09T02:02:44;101364.94;;;8.26;100.00
50684;BME280;36654;45.042;38.994;2023-05-09T02:05:11;101365.81;;;8.26;100.00
50684;BME280;36654;45.042;38.994;2023-05-09T02:07:39;101367.53;;;8.24;100.00
50684;BME280;36654;45.042;38.994;2023-05-09T02:10:06;101353.38;;;8.22;100.00
50684;BME280;36654;45.042;38.994;2023-05-09T02:12:33;101339.06;;;8.14;100.00
50684;BME280;36654;45.042;38.994;2023-05-09T02:14:59;101334.59;;;8.13;100.00
50684;BME280;36654;45.042;38.994;2023-05-09T02:17:24;101355.00;;;8.17;100.00
50684;BME280;36654;45.042;38.994;2023-05-09T02:19:50;101356.50;;;8.09;100.00
50684;BME280;36654;45.042;38.994;2023-05-09T02:22:16;101343.16;;;8.04;100.00
50684;BME280;36654;45.042;38.994;2023-05-09T02:24:42;101361.97;;;8.15;100.00
50684;BME280;36654;45.042;38.994;2023-05-09T02:27:10;101352.91;;;8.07;100.00
50684;BME280;36654;45.042;38.994;2023-05-09T02:29:45;101361.78;;;8.09;100.00
50684;BME280;36654;45.042;38.994;2023-05-09T02:32:15;101379.41;;;8.10;100.00
50684;BME280;36654;45.042;38.994;2023-05-09T02:34:41;101359.88;;;8.05;100.00
50684;BME280;36654;45.042;38.994;2023-05-09T02:37:09;101372.44;;;8.12;100.00
50684;BME280;36654;45.042;38.994;2023-05-09T02:39:35;101346.53;;;8.00;100.00
50684;BME280;36654;45.042;38.994;2023-05-09T02:42:09;101391.75;;;8.11;100.00
50684;BME280;36654;45.042;38.994;2023-05-09T02:44:35;101374.84;;;8.04;100.00
50684;BME280;36654;45.042;38.994;2023-05-09T02:47:02;101382.78;;;8.06;100.00
50684;BME280;36654;45.042;38.994;2023-05-09T02:49:28;101371.34;;;8.05;100.00
50684;BME280;36654;45.042;38.994;2023-05-09T02:51:53;101383.75;;;8.08;100.00
50684;BME280;36654;45.042;38.994;2023-05-09T02:54:19;101377.44;;;8.03;100.00
50684;BME280;36654;45.042;38.994;2023-05-09T02:56:46;101382.91;;;8.09;100.00
50684;BME280;36654;45.042;38.994;2023-05-09T02:59:11;101397.03;;;8.11;100.00
50684;BME280;36654;45.042;38.994;2023-05-09T03:01:37;101404.88;;;8.08;100.00
50684;BME280;36654;45.042;38.994;2023-05-09T03:04:03;101393.47;;;8.09;100.00
50684;BME280;36654;45.042;38.994;2023-05-09T03:06:28;101403.91;;;8.06;100.00
50684;BME280;36654;45.042;38.994;2023-05-09T03:08:54;101398.63;;;8.06;100.00
50684;BME280;36654;45.042;38.994;2023-05-09T03:11:19;101420.63;;;8.05;100.00
50684;BME280;36654;45.042;38.994;2023-05-09T03:13:45;101405.59;;;8.04;100.00
50684;BME280;36654;45.042;38.994;2023-05-09T03:16:13;101400.44;;;8.07;100.00
50684;BME280;36654;45.042;38.994;2023-05-09T03:18:39;101410.09;;;8.06;100.00
50684;BME280;36654;45.042;38.994;2023-05-09T03:21:05;101403.91;;;8.06;100.00
50684;BME280;36654;45.042;38.994;2023-05-09T03:23:30;101367.09;;;7.82;100.00
50684;BME280;36654;45.042;38.994;2023-05-09T03:25:56;101403.66;;;7.96;100.00
50684;BME280;36654;45.042;38.994;2023-05-09T03:28:22;101417.78;;;7.98;100.00
50684;BME280;36654;45.042;38.994;2023-05-09T03:30:48;101426.63;;;8.00;100.00
50684;BME280;36654;45.042;38.994;2023-05-09T03:33:14;101412.63;;;8.02;100.00
50684;BME280;36654;45.042;38.994;2023-05-09T03:35:39;101405.50;;;8.00;100.00
50684;BME280;36654;45.042;38.994;2023-05-09T03:38:05;101416.22;;;8.05;100.00
50684;BME280;36654;45.042;38.994;2023-05-09T03:40:30;101412.69;;;8.05;100.00
50684;BME280;36654;45.042;38.994;2023-05-09T03:42:56;101418.88;;;8.05;100.00
50684;BME280;36654;45.042;38.994;2023-05-09T03:45:22;101402.06;;;8.02;100.00
50684;BME280;36654;45.042;38.994;2023-05-09T03:47:47;101397.56;;;7.99;100.00
50684;BME280;36654;45.042;38.994;2023-05-09T03:50:13;101401.28;;;8.06;100.00
50684;BME280;36654;45.042;38.994;2023-05-09T03:52:38;101360.78;;;7.78;100.00
50684;BME280;36654;45.042;38.994;2023-05-09T03:55:04;101356.38;;;7.77;100.00
50684;BME280;36654;45.042;38.994;2023-05-09T03:57:30;101397.59;;;8.00;100.00
50684;BME280;36654;45.042;38.994;2023-05-09T03:59:56;101403.75;;;7.99;100.00
50684;BME280;36654;45.042;38.994;2023-05-09T04:02:22;101398.53;;;8.03;100.00
50684;BME280;36654;45.042;38.994;2023-05-09T04:04:47;101407.34;;;8.03;100.00
50684;BME280;36654;45.042;38.994;2023-05-09T04:07:14;101398.47;;;7.99;100.00
50684;BME280;36654;45.042;38.994;2023-05-09T04:09:40;101369.72;;;7.82;100.00
50684;BME280;36654;45.042;38.994;2023-05-09T04:12:07;101401.94;;;7.98;100.00
50684;BME280;36654;45.042;38.994;2023-05-09T04:14:33;101387.59;;;7.90;100.00
50684;BME280;36654;45.042;38.994;2023-05-09T04:16:58;101395.75;;;7.98;100.00
50684;BME280;36654;45.042;38.994;2023-05-09T04:19:24;101404.78;;;8.05;100.00
50684;BME280;36654;45.042;38.994;2023-05-09T04:21:50;101406.41;;;8.01;100.00
50684;BME280;36654;45.042;38.994;2023-05-09T04:24:15;101414.31;;;7.99;100.00
50684;BME280;36654;45.042;38.994;2023-05-09T04:26:41;101400.16;;;7.97;100.00
50684;BME280;36654;45.042;38.994;2023-05-09T04:29:07;101411.75;;;8.03;100.00
50684;BME280;36654;45.042;38.994;2023-05-09T04:31:32;101412.69;;;8.05;100.00
50684;BME280;36654;45.042;38.994;2023-05-09T04:33:58;101406.53;;;8.04;100.00
50684;BME280;36654;45.042;38.994;2023-05-09T04:36:23;101404.72;;;8.03;100.00
50684;BME280;36654;45.042;38.994;2023-05-09T04:38:49;101414.59;;;8.09;100.00
50684;BME280;36654;45.042;38.994;2023-05-09T04:41:15;101409.41;;;8.12;100.00
50684;BME280;36654;45.042;38.994;2023-05-09T04:43:41;101399.44;;;8.03;100.00
50684;BME280;36654;45.042;38.994;2023-05-09T04:46:07;101399.69;;;8.11;100.00
50684;BME280;36654;45.042;38.994;2023-05-09T04:48:34;101413.81;;;8.11;100.00
50684;BME280;36654;45.042;38.994;2023-05-09T04:51:00;101411.25;;;8.14;100.00
50684;BME280;36654;45.042;38.994;2023-05-09T04:53:25;101379.13;;;8.00;100.00
50684;BME280;36654;45.042;38.994;2023-05-09T04:55:53;101403.19;;;8.10;100.00
50684;BME280;36654;45.042;38.994;2023-05-09T04:58:19;101411.41;;;8.19;100.00
50684;BME280;36654;45.042;38.994;2023-05-09T05:00:45;101429.03;;;8.20;100.00
50684;BME280;36654;45.042;38.994;2023-05-09T05:03:11;101415.75;;;8.17;100.00
50684;BME280;36654;45.042;38.994;2023-05-09T05:05:37;101427.25;;;8.19;100.00
50684;BME280;36654;45.042;38.994;2023-05-09T05:08:04;101421.81;;;8.14;100.00
50684;BME280;36654;45.042;38.994;2023-05-09T05:10:30;101404.16;;;8.13;100.00
50684;BME280;36654;45.042;38.994;2023-05-09T05:12:55;101413.19;;;8.20;100.00
50684;BME280;36654;45.042;38.994;2023-05-09T05:15:21;101423.75;;;8.20;100.00
50684;BME280;36654;45.042;38.994;2023-05-09T05:17:47;101420.06;;;8.15;100.00
50684;BME280;36654;45.042;38.994;2023-05-09T05:20:12;101405.91;;;8.13;100.00
50684;BME280;36654;45.042;38.994;2023-05-09T05:22:38;101430.81;;;8.21;100.00
50684;BME280;36654;45.042;38.994;2023-05-09T05:25:04;101427.34;;;8.22;100.00
50684;BME280;36654;45.042;38.994;2023-05-09T05:27:30;101425.66;;;8.24;100.00
50684;BME280;36654;45.042;38.994;2023-05-09T05:29:56;101410.38;;;8.14;100.00
50684;BME280;36654;45.042;38.994;2023-05-09T05:32:21;101424.78;;;8.25;100.00
50684;BME280;36654;45.042;38.994;2023-05-09T05:34:47;101423.91;;;8.25;100.00
50684;BME280;36654;45.042;38.994;2023-05-09T05:37:12;101422.06;;;8.22;100.00
50684;BME280;36654;45.042;38.994;2023-05-09T05:39:38;101432.94;;;8.31;100.00
50684;BME280;36654;45.042;38.994;2023-05-09T05:42:03;101422.44;;;8.34;100.00
50684;BME280;36654;45.042;38.994;2023-05-09T05:44:29;101425.91;;;8.33;100.00
50684;BME280;36654;45.042;38.994;2023-05-09T05:46:55;101404.59;;;8.27;100.00
50684;BME280;36654;45.042;38.994;2023-05-09T05:49:20;101415.47;;;8.36;100.00
50684;BME280;36654;45.042;38.994;2023-05-09T05:51:46;101417.25;;;8.37;100.00
50684;BME280;36654;45.042;38.994;2023-05-09T05:54:11;101416.28;;;8.34;100.00
50684;BME280;36654;45.042;38.994;2023-05-09T05:56:37;101422.66;;;8.40;100.00
50684;BME280;36654;45.042;38.994;2023-05-09T05:59:02;101421.75;;;8.40;100.00
50684;BME280;36654;45.042;38.994;2023-05-09T06:01:28;101431.44;;;8.39;100.00
50684;BME280;36654;45.042;38.994;2023-05-09T06:03:54;101429.50;;;8.35;100.00
50684;BME280;36654;45.042;38.994;2023-05-09T06:06:21;101429.50;;;8.35;100.00
50684;BME280;36654;45.042;38.994;2023-05-09T06:08:47;101425.81;;;8.29;100.00
50684;BME280;36654;45.042;38.994;2023-05-09T06:11:16;101425.91;;;8.33;100.00
50684;BME280;36654;45.042;38.994;2023-05-09T06:13:42;101408.19;;;8.29;100.00
50684;BME280;36654;45.042;38.994;2023-05-09T06:16:08;101417.25;;;8.37;100.00
50684;BME280;36654;45.042;38.994;2023-05-09T06:18:34;101417.25;;;8.37;100.00
50684;BME280;36654;45.042;38.994;2023-05-09T06:21:10;101408.47;;;8.38;100.00
50684;BME280;36654;45.042;38.994;2023-05-09T06:23:36;101417.25;;;8.37;100.00
50684;BME280;36654;45.042;38.994;2023-05-09T06:26:02;101413.75;;;8.38;100.00
50684;BME280;36654;45.042;38.994;2023-05-09T06:28:28;101415.47;;;8.36;100.00
50684;BME280;36654;45.042;38.994;2023-05-09T06:30:54;101407.41;;;8.32;100.00
50684;BME280;36654;45.042;38.994;2023-05-09T06:33:20;101422.59;;;8.39;100.00
50684;BME280;36654;45.042;38.994;2023-05-09T06:35:45;101401.75;;;8.21;100.00
50684;BME280;36654;45.042;38.994;2023-05-09T06:40:38;101422.66;;;8.40;100.00
50684;BME280;36654;45.042;38.994;2023-05-09T06:43:04;101379.50;;;8.13;100.00
50684;BME280;36654;45.042;38.994;2023-05-09T06:45:29;101427.13;;;8.41;100.00
50684;BME280;36654;45.042;38.994;2023-05-09T06:47:55;101413.75;;;8.38;100.00
50684;BME280;36654;45.042;38.994;2023-05-09T06:50:21;101424.66;;;8.48;100.00
50684;BME280;36654;45.042;38.994;2023-05-09T06:52:47;101421.16;;;8.49;100.00
50684;BME280;36654;45.042;38.994;2023-05-09T06:55:12;101430.13;;;8.54;100.00
50684;BME280;36654;45.042;38.994;2023-05-09T06:57:38;101422.88;;;8.47;100.00
50684;BME280;36654;45.042;38.994;2023-05-09T07:00:07;101422.94;;;8.50;100.00
50684;BME280;36654;45.042;38.994;2023-05-09T07:02:33;101395.03;;;8.31;100.00
50684;BME280;36654;45.042;38.994;2023-05-09T07:04:59;101398.69;;;8.36;100.00
50684;BME280;36654;45.042;38.994;2023-05-09T07:07:25;101408.84;;;8.49;100.00
50684;BME280;36654;45.042;38.994;2023-05-09T07:09:51;101417.16;;;8.61;100.00
50684;BME280;36654;45.042;38.994;2023-05-09T07:12:16;101420.69;;;8.62;100.00
50684;BME280;36654;45.042;38.994;2023-05-09T07:14:42;101389.34;;;8.46;100.00
50684;BME280;36654;45.042;38.994;2023-05-09T07:17:08;101436.78;;;8.70;100.00
50684;BME280;36654;45.042;38.994;2023-05-09T07:19:33;101378.75;;;8.44;100.00
50684;BME280;36654;45.042;38.994;2023-05-09T07:21:59;101411.06;;;8.64;100.00
50684;BME280;36654;45.042;38.994;2023-05-09T07:24:24;101394.91;;;8.55;100.00
50684;BME280;36654;45.042;38.994;2023-05-09T07:26:50;101425.53;;;8.77;100.00
50684;BME280;36654;45.042;38.994;2023-05-09T07:29:16;101400.66;;;8.70;100.00
50684;BME280;36654;45.042;38.994;2023-05-09T07:31:43;101416.59;;;8.73;100.00
50684;BME280;36654;45.042;38.994;2023-05-09T07:34:08;101419.28;;;8.75;100.00
50684;BME280;36654;45.042;38.994;2023-05-09T07:36:34;101418.41;;;8.74;100.00
50684;BME280;36654;45.042;38.994;2023-05-09T07:39:01;101420.00;;;8.69;100.00
50684;BME280;36654;45.042;38.994;2023-05-09T07:41:29;101400.47;;;8.64;100.00
50684;BME280;36654;45.042;38.994;2023-05-09T07:43:55;101418.44;;;8.76;100.00
50684;BME280;36654;45.042;38.994;2023-05-09T07:46:21;101403.44;;;8.75;100.00
50684;BME280;36654;45.042;38.994;2023-05-09T07:48:47;101416.88;;;8.82;100.00
50684;BME280;36654;45.042;38.994;2023-05-09T07:51:12;101415.97;;;8.82;100.00
50684;BME280;36654;45.042;38.994;2023-05-09T07:53:38;101415.09;;;8.81;100.00
50684;BME280;36654;45.042;38.994;2023-05-09T07:56:04;101431.03;;;8.84;100.00
50684;BME280;36654;45.042;38.994;2023-05-09T07:58:31;101413.47;;;8.87;100.00
50684;BME280;36654;45.042;38.994;2023-05-09T08:00:57;101381.03;;;8.62;100.00
50684;BME280;36654;45.042;38.994;2023-05-09T08:03:22;101431.13;;;8.88;100.00
50684;BME280;36654;45.042;38.994;2023-05-09T08:05:48;101417.91;;;8.88;100.00
50684;BME280;36654;45.042;38.994;2023-05-09T08:08:13;101383.84;;;8.68;100.00
50684;BME280;36654;45.042;38.994;2023-05-09T08:10:39;101381.19;;;8.67;100.00
50684;BME280;36654;45.042;38.994;2023-05-09T08:13:05;101423.31;;;8.92;100.00
50684;BME280;36654;45.042;38.994;2023-05-09T08:15:30;101424.28;;;8.96;100.00
50684;BME280;36654;45.042;38.994;2023-05-09T08:17:56;101418.94;;;8.93;100.00
50684;BME280;36654;45.042;38.994;2023-05-09T08:20:22;101423.53;;;9.00;100.00
50684;BME280;36654;45.042;38.994;2023-05-09T08:22:48;101398.59;;;8.90;100.00
50684;BME280;36654;45.042;38.994;2023-05-09T08:25:14;101428.09;;;9.04;100.00
50684;BME280;36654;45.042;38.994;2023-05-09T08:27:42;101422.88;;;9.07;100.00
50684;BME280;36654;45.042;38.994;2023-05-09T08:30:08;101385.34;;;8.89;100.00
50684;BME280;36654;45.042;38.994;2023-05-09T08:32:34;101425.84;;;9.19;100.00
50684;BME280;36654;45.042;38.994;2023-05-09T08:35:00;101389.25;;;9.03;100.00
50684;BME280;36654;45.042;38.994;2023-05-09T08:37:25;101417.94;;;9.19;100.00
50684;BME280;36654;45.042;38.994;2023-05-09T08:39:51;101424.31;;;9.27;100.00
50684;BME280;36654;45.042;38.994;2023-05-09T08:42:18;101430.63;;;9.33;100.00
50684;BME280;36654;45.042;38.994;2023-05-09T08:44:47;101413.94;;;9.35;100.00
50684;BME280;36654;45.042;38.994;2023-05-09T08:47:13;101421.38;;;9.48;100.00
50684;BME280;36654;45.042;38.994;2023-05-09T08:49:40;101420.56;;;9.51;100.00
50684;BME280;36654;45.042;38.994;2023-05-09T08:52:06;101419.00;;;9.59;100.00
50684;BME280;36654;45.042;38.994;2023-05-09T08:54:32;101418.25;;;9.65;100.00
50684;BME280;36654;45.042;38.994;2023-05-09T08:56:59;101406.78;;;9.64;100.00
50684;BME280;36654;45.042;38.994;2023-05-09T08:59:25;101414.53;;;9.58;100.00
50684;BME280;36654;45.042;38.994;2023-05-09T09:01:52;101409.16;;;9.55;100.00
50684;BME280;36654;45.042;38.994;2023-05-09T09:04:18;101395.78;;;9.49;100.00
50684;BME280;36654;45.042;38.994;2023-05-09T09:06:45;101404.81;;;9.57;100.00
50684;BME280;36654;45.042;38.994;2023-05-09T09:09:12;101411.06;;;9.59;100.00
50684;BME280;36654;45.042;38.994;2023-05-09T09:11:40;101404.88;;;9.60;100.00
50684;BME280;36654;45.042;38.994;2023-05-09T09:14:22;101398.75;;;9.61;100.00
50684;BME280;36654;45.042;38.994;2023-05-09T09:16:50;101408.72;;;9.71;100.00
50684;BME280;36654;45.042;38.994;2023-05-09T09:19:17;101378.34;;;9.57;100.00
50684;BME280;36654;45.042;38.994;2023-05-09T09:21:45;101412.38;;;9.77;100.00
50684;BME280;36654;45.042;38.994;2023-05-09T09:24:20;101409.81;;;9.80;100.00
50684;BME280;36654;45.042;38.994;2023-05-09T09:26:48;101405.25;;;9.74;100.00
50684;BME280;36654;45.042;38.994;2023-05-09T09:29:15;101417.88;;;9.86;100.00
50684;BME280;36654;45.042;38.994;2023-05-09T09:31:45;101407.47;;;9.92;100.00
50684;BME280;36654;45.042;38.994;2023-05-09T09:34:12;101408.50;;;9.99;100.00
50684;BME280;36654;45.042;38.994;2023-05-09T09:36:38;101401.47;;;9.99;100.00
50684;BME280;36654;45.042;38.994;2023-05-09T09:39:04;101405.94;;;10.03;100.00
50684;BME280;36654;45.042;38.994;2023-05-09T09:41:34;101407.75;;;10.04;100.00
50684;BME280;36654;45.042;38.994;2023-05-09T09:44:06;101413.88;;;10.02;100.00
50684;BME280;36654;45.042;38.994;2023-05-09T09:46:49;101413.63;;;9.91;100.00
50684;BME280;36654;45.042;38.994;2023-05-09T09:49:17;101417.03;;;9.87;100.00
50684;BME280;36654;45.042;38.994;2023-05-09T09:51:43;101419.69;;;9.87;100.00
50684;BME280;36654;45.042;38.994;2023-05-09T09:54:11;101423.22;;;9.87;100.00
50684;BME280;36654;45.042;38.994;2023-05-09T09:56:47;101424.00;;;9.83;100.00
50684;BME280;36654;45.042;38.994;2023-05-09T09:59:15;101426.75;;;9.88;100.00
50684;BME280;36654;45.042;38.994;2023-05-09T10:01:57;101414.63;;;9.96;100.00
50684;BME280;36654;45.042;38.994;2023-05-09T10:04:24;101417.28;;;9.96;100.00
50684;BME280;36654;45.042;38.994;2023-05-09T10:07:00;101387.84;;;9.84;100.00
50684;BME280;36654;45.042;38.994;2023-05-09T10:09:28;101405.88;;;10.00;100.00
50684;BME280;36654;45.042;38.994;2023-05-09T10:11:55;101411.22;;;10.02;100.00
50684;BME280;36654;45.042;38.994;2023-05-09T10:14:23;101411.25;;;10.03;100.00
50684;BME280;36654;45.042;38.994;2023-05-09T10:16:50;101416.66;;;10.06;100.00
50684;BME280;36654;45.042;38.994;2023-05-09T10:19:18;101419.34;;;10.09;100.00
50684;BME280;36654;45.042;38.994;2023-05-09T10:21:55;101391.69;;;9.98;100.00
50684;BME280;36654;45.042;38.994;2023-05-09T10:26:52;101386.50;;;10.01;100.00
50684;BME280;36654;45.042;38.994;2023-05-09T10:29:22;101415.19;;;10.21;100.00
50684;BME280;36654;45.042;38.994;2023-05-09T10:31:53;101422.38;;;10.25;100.00
50684;BME280;36654;45.042;38.994;2023-05-09T10:34:24;101429.56;;;10.29;100.00
50684;BME280;36654;45.042;38.994;2023-05-09T10:36:51;101397.50;;;10.20;100.00
50684;BME280;36654;45.042;38.994;2023-05-09T10:39:17;101403.06;;;10.29;100.00
50684;BME280;36654;45.042;38.994;2023-05-09T10:41:43;101410.25;;;10.34;100.00
50684;BME280;36654;45.042;38.994;2023-05-09T10:44:11;101420.91;;;10.36;100.00
50684;BME280;36654;45.042;38.994;2023-05-09T10:46:36;101401.31;;;10.29;100.00
50684;BME280;36654;45.042;38.994;2023-05-09T10:49:03;101426.34;;;10.42;100.00
50684;BME280;36654;45.042;38.994;2023-05-09T10:51:29;101407.88;;;10.47;100.00
50684;BME280;36654;45.042;38.994;2023-05-09T10:53:54;101423.03;;;10.52;100.00
50684;BME280;36654;45.042;38.994;2023-05-09T10:56:30;101411.44;;;10.47;100.00
50684;BME280;36654;45.042;38.994;2023-05-09T10:58:57;101421.19;;;10.50;100.00
50684;BME280;36654;45.042;38.994;2023-05-09T11:01:31;101432.69;;;10.50;100.00
50684;BME280;36654;45.042;38.994;2023-05-09T11:03:59;101432.69;;;10.50;100.00
50684;BME280;36654;45.042;38.994;2023-05-09T11:09:35;101430.69;;;10.40;100.00
50684;BME280;36654;45.042;38.994;2023-05-09T11:12:15;101433.34;;;10.40;100.00
50684;BME280;36654;45.042;38.994;2023-05-09T11:14:47;101436.16;;;10.46;100.00
50684;BME280;36654;45.042;38.994;2023-05-09T11:17:27;101414.06;;;10.47;100.00
50684;BME280;36654;45.042;38.994;2023-05-09T11:20:02;101433.69;;;10.55;100.00
50684;BME280;36654;45.042;38.994;2023-05-09T11:22:40;101422.09;;;10.50;100.00
50684;BME280;36654;45.042;38.994;2023-05-09T11:25:10;101435.63;;;10.63;100.00
50684;BME280;36654;45.042;38.994;2023-05-09T11:27:40;101423.34;;;10.66;100.00
50684;BME280;36654;45.042;38.994;2023-05-09T11:30:14;101422.47;;;10.67;100.00
50684;BME280;36654;45.042;38.994;2023-05-09T11:32:54;101417.16;;;10.67;100.00
50684;BME280;36654;45.042;38.994;2023-05-09T11:35:23;101376.19;;;10.53;100.00
50684;BME280;36654;45.042;38.994;2023-05-09T11:40:25;101413.00;;;10.80;100.00
50684;BME280;36654;45.042;38.994;2023-05-09T11:42:53;101386.31;;;10.71;100.00
50684;BME280;36654;45.042;38.994;2023-05-09T11:45:21;101409.56;;;10.84;100.00
50684;BME280;36654;45.042;38.994;2023-05-09T11:47:47;101398.91;;;10.81;100.00
50684;BME280;36654;45.042;38.994;2023-05-09T11:50:15;101397.97;;;10.79;100.00
50684;BME280;36654;45.042;38.994;2023-05-09T11:52:41;101385.41;;;10.69;100.00
50684;BME280;36654;45.042;38.994;2023-05-09T11:55:20;101397.94;;;10.77;100.00
50684;BME280;36654;45.042;38.994;2023-05-09T11:57:54;101398.00;;;10.80;100.00
50684;BME280;36654;45.042;38.994;2023-05-09T12:00:24;101398.81;;;10.78;100.00
50684;BME280;36654;45.042;38.994;2023-05-09T12:02:51;101393.47;;;10.75;100.00
50684;BME280;36654;45.042;38.994;2023-05-09T12:05:18;101398.97;;;10.84;100.00
50684;BME280;36654;45.042;38.994;2023-05-09T12:07:45;101396.31;;;10.86;100.00
50684;BME280;36654;45.042;38.994;2023-05-09T12:10:17;101398.13;;;10.87;100.00
50684;BME280;36654;45.042;38.994;2023-05-09T12:12:47;101348.16;;;10.64;100.00
50684;BME280;36654;45.042;38.994;2023-05-09T12:15:13;101384.97;;;10.91;100.00
50684;BME280;36654;45.042;38.994;2023-05-09T12:17:40;101387.72;;;10.97;100.00
50684;BME280;36654;45.042;38.994;2023-05-09T12:20:07;101352.91;;;10.79;100.00
50684;BME280;36654;45.042;38.994;2023-05-09T12:22:34;101387.88;;;11.04;100.00
50684;BME280;36654;45.042;38.994;2023-05-09T12:25:06;101402.06;;;11.07;100.00
50684;BME280;36654;45.042;38.994;2023-05-09T12:27:34;101368.22;;;10.95;100.00
50684;BME280;36654;45.042;38.994;2023-05-09T12:30:00;101381.75;;;11.08;100.00
50684;BME280;36654;45.042;38.994;2023-05-09T12:32:27;101385.22;;;11.05;100.00
50684;BME280;36654;45.042;38.994;2023-05-09T12:34:58;101387.88;;;11.04;100.00
50684;BME280;36654;45.042;38.994;2023-05-09T12:37:24;101383.25;;;10.95;100.00
50684;BME280;36654;45.042;38.994;2023-05-09T12:42:33;101378.09;;;11.02;100.00
50684;BME280;36654;45.042;38.994;2023-05-09T12:45:00;101383.44;;;11.04;100.00
50684;BME280;36654;45.042;38.994;2023-05-09T12:47:27;101386.06;;;11.02;100.00
50684;BME280;36654;45.042;38.994;2023-05-09T12:50:11;101395.78;;;11.02;100.00
50684;BME280;36654;45.042;38.994;2023-05-09T12:52:41;101401.13;;;11.04;100.00
50684;BME280;36654;45.042;38.994;2023-05-09T12:55:09;101395.81;;;11.04;100.00
50684;BME280;36654;45.042;38.994;2023-05-09T12:57:37;101390.53;;;11.04;100.00
50684;BME280;36654;45.042;38.994;2023-05-09T13:00:05;101376.13;;;10.92;100.00
50684;BME280;36654;45.042;38.994;2023-05-09T13:02:36;101396.88;;;11.12;100.00